Main page
METAR-TAF:

METAR-TAF

Airports :

Pattani Airport

Pattani, Thailand

latitude: 06-47-08N, longitude: 101-09-13E, elevation: 2 m

METAR: missing

Time: 05:47 (22:47 UTC)

Forecast

The report was made 5 hours and 47 minutes ago, at 17:00 UTC
Forecast valid from 17 at 18 UTC to 18 at 18 UTC
Wind 5 kt from the East/Southeast
Visibility 10 km or more
Few clouds at a height of 2000 ft
Broken clouds at a height of 10000 ft
Temporary
from 18 at 03 UTC to 18 at 09 UTC
Visibility: 5000 m
Scattered clouds at a height of 1500 ft
Broken clouds at a height of 10000 ft
rain
Temporary
from 18 at 09 UTC to 18 at 15 UTC
Visibility: 5000 m
Scattered clouds at a height of 1500 ft
Broken clouds at a height of 10000 ft
rain

TAF: VTSK 171700Z 1718/1818 11005KT 9999 FEW020 BKN100 TEMPO 1803/1809 5000 RA SCT015 BKN100 TEMPO 1809/1815 5000 RA SCT015 BKN100

Weather observations and forecasts of more than 4000 airports (METAR and TAF reports).

The available stations are represented by yellow and red dots on the map.

Hover mouse over dot to see the name of the station.

Then click to see weather observations and forecasts.

To change the map : click on the green buttons with a black cross to zoom in, on the green button with a dash to zoom out, or on the green arrows for adjacent maps.


METAR-TAF: